This is the latest recevied weather packets stored in our database for station/object KG7DQI-13. If no packets are shown the sender has not sent any weather packets the latest 10 day(s).
| Time | Temp. | Humidity | Pressure | Rain* | Wind** | Luminosity | Snow |
|---|---|---|---|---|---|---|---|
| 1788249717 | 11.67° C | 45% | 909.2 hPa | 0 mm | - | 0 W/m² | - |
| 1788248827 | 11.11° C | 47% | 909.1 hPa | 0 mm | - | 0 W/m² | - |
| 1788247945 | 11.67° C | 45% | 909.2 hPa | 0 mm | - | 0 W/m² | - |
| 1788246147 | 12.78° C | 41% | 909.1 hPa | 0 mm | - | 0 W/m² | - |
| 1788245204 | 13.33° C | 40% | 909 hPa | 0 mm | - | 0 W/m² | - |
| 1788244336 | 13.33° C | 41% | 909.4 hPa | 0 mm | - | 0 W/m² | - |
| 1788243392 | 13.89° C | 41% | 909.5 hPa | 0 mm | - | 0 W/m² | - |
| 1788242512 | 13.89° C | 41% | 909.5 hPa | 0 mm | - | 0 W/m² | - |
| 1788241574 | 14.44° C | 39% | 909.5 hPa | 0 mm | - | 0 W/m² | - |
| 1788239758 | 15° C | 37% | 909.4 hPa | 0 mm | - | 0 W/m² | - |
| 1788238872 | 16.11° C | 35% | 909.4 hPa | 0 mm | - | 0 W/m² | - |
| 1788237964 | 17.22° C | 34% | 909.4 hPa | 0 mm | - | 0 W/m² | - |
| 1788237064 | 18.33° C | 33% | 909.4 hPa | 0 mm | - | 0 W/m² | - |
| 1788236149 | 19.44° C | 31% | 909.1 hPa | 0 mm | - | 0 W/m² | - |
| 1788220837 | 27.78° C | 19% | 908 hPa | 0 mm | - | 104 W/m² | - |
| 1788219975 | 28.33° C | 19% | 908 hPa | 0 mm | - | 90 W/m² | - |
| 1788206503 | 25° C | 25% | 910.7 hPa | 0 mm | - | 777 W/m² | - |
| 1788205618 | 25° C | 25% | 910.9 hPa | 0 mm | - | 766 W/m² | - |
| 1788204689 | 24.44° C | 27% | 911 hPa | 0 mm | - | 761 W/m² | - |
| 1788203785 | 23.89° C | 28% | 911.1 hPa | 0 mm | - | 751 W/m² | - |
| 1788202840 | 23.33° C | 29% | 911.5 hPa | 0 mm | - | 742 W/m² | - |
| 1788200960 | 22.78° C | 30% | 911.9 hPa | 0 mm | - | 701 W/m² | - |
| 1788200066 | 22.22° C | 33% | 912.1 hPa | 0 mm | - | 682 W/m² | - |
| 1788197427 | 20° C | 36% | 912.6 hPa | 0 mm | - | 598 W/m² | - |
| 1788196555 | 18.89° C | 39% | 912.8 hPa | 0 mm | - | 559 W/m² | - |
* Rain latest hour (hover to see other rain measurements)
** Current wind speed in m/s (hover to see current wind gust speed)